createdAt,value
2018-06-04T00:00:23.135Z,4.87
2018-06-04T00:02:51.528Z,4.92
2018-06-04T00:05:19.899Z,6.97
2018-06-04T00:07:48.061Z,16.07
2018-06-04T00:10:16.422Z,11.28
2018-06-04T00:12:44.855Z,9.10
2018-06-04T00:15:13.403Z,6.80
2018-06-04T00:17:41.842Z,7.12
2018-06-04T00:20:10.218Z,9.18
2018-06-04T00:22:38.603Z,10.45
2018-06-04T00:25:07.648Z,8.35
2018-06-04T00:27:36.039Z,7.30
2018-06-04T00:30:04.438Z,6.83
2018-06-04T00:32:32.846Z,6.58
2018-06-04T00:35:01.194Z,5.62
2018-06-04T00:37:29.583Z,6.25
2018-06-04T00:39:58.202Z,7.20
2018-06-04T00:42:26.567Z,6.50
2018-06-04T00:44:54.912Z,7.55
2018-06-04T00:47:23.320Z,6.70
2018-06-04T00:49:51.683Z,6.62
2018-06-04T00:52:20.359Z,6.50
2018-06-04T00:54:48.719Z,8.73
2018-06-04T00:57:17.128Z,7.67
2018-06-04T00:59:45.523Z,9.00
2018-06-04T01:02:13.884Z,7.95
2018-06-04T01:04:42.243Z,9.60
2018-06-04T01:07:10.602Z,7.55
2018-06-04T01:09:39.064Z,7.12
2018-06-04T01:12:07.431Z,7.83
2018-06-04T01:14:35.788Z,8.15
2018-06-04T01:17:04.111Z,8.45
2018-06-04T01:19:32.526Z,8.58
2018-06-04T01:22:00.894Z,8.68
2018-06-04T01:24:29.320Z,12.82
2018-06-04T01:26:57.660Z,8.97
2018-06-04T01:29:26.030Z,10.70
2018-06-04T01:31:54.366Z,11.93
2018-06-04T01:34:22.760Z,12.33
2018-06-04T01:36:51.115Z,10.47
2018-06-04T01:39:19.494Z,10.23
2018-06-04T01:41:47.934Z,10.43
2018-06-04T01:44:16.339Z,9.03
2018-06-04T01:46:44.746Z,9.45
2018-06-04T01:49:13.117Z,10.43
2018-06-04T01:51:41.469Z,10.13
2018-06-04T01:54:09.931Z,10.70
2018-06-04T01:56:38.258Z,10.23
2018-06-04T01:59:06.644Z,11.17
2018-06-04T02:01:35.008Z,9.80
2018-06-04T02:04:03.406Z,11.25
2018-06-04T02:06:31.778Z,11.10
2018-06-04T02:09:00.179Z,12.18
2018-06-04T02:11:28.534Z,12.13
2018-06-04T02:13:56.934Z,12.07
2018-06-04T02:16:25.291Z,12.53
2018-06-04T02:18:53.692Z,10.93
2018-06-04T02:21:25.081Z,12.00
2018-06-04T02:23:53.447Z,11.10
2018-06-04T02:26:21.822Z,11.27
2018-06-04T02:28:50.181Z,10.70
2018-06-04T02:31:18.560Z,13.97
2018-06-04T02:33:46.903Z,12.87
2018-06-04T02:36:15.282Z,11.23
2018-06-04T02:38:43.660Z,10.55
2018-06-04T02:41:12.024Z,12.77
2018-06-04T02:43:40.371Z,12.03
2018-06-04T02:46:08.834Z,10.87
2018-06-04T02:48:37.173Z,12.10
2018-06-04T02:51:05.553Z,11.87
2018-06-04T02:53:33.937Z,10.88
2018-06-04T02:56:02.349Z,12.43
2018-06-04T02:58:30.720Z,11.77
2018-06-04T03:00:59.112Z,12.10
2018-06-04T03:03:27.503Z,11.90
2018-06-04T03:05:55.871Z,11.05
2018-06-04T03:08:24.222Z,11.10
2018-06-04T03:10:52.428Z,10.80
2018-06-04T03:13:20.841Z,10.33
2018-06-04T03:15:49.229Z,10.80
2018-06-04T03:18:17.578Z,11.33
2018-06-04T03:20:45.940Z,9.97
2018-06-04T03:23:14.269Z,10.33
2018-06-04T03:25:42.677Z,9.57
2018-06-04T03:28:11.062Z,11.37
2018-06-04T03:30:39.443Z,11.00
2018-06-04T03:33:07.793Z,11.63
2018-06-04T03:35:36.175Z,10.73
2018-06-04T03:38:04.761Z,10.90
2018-06-04T03:40:33.134Z,10.67
2018-06-04T03:43:01.480Z,12.70
2018-06-04T03:45:29.833Z,12.73
2018-06-04T03:47:58.275Z,11.30
2018-06-04T03:50:26.655Z,11.43
2018-06-04T03:52:55.024Z,11.40
2018-06-04T03:55:23.407Z,11.40
2018-06-04T03:57:51.770Z,11.20
2018-06-04T04:00:20.158Z,11.57
2018-06-04T04:02:48.537Z,12.43
2018-06-04T04:05:16.898Z,11.53
2018-06-04T04:07:45.294Z,13.07
2018-06-04T04:10:13.663Z,13.07
2018-06-04T04:12:42.043Z,11.17
2018-06-04T04:15:10.414Z,13.50
2018-06-04T04:17:39.051Z,12.25
2018-06-04T04:20:07.437Z,12.10
2018-06-04T04:22:35.532Z,11.55
2018-06-04T04:25:03.912Z,11.80
2018-06-04T04:27:32.310Z,12.90
2018-06-04T04:30:00.672Z,11.38
2018-06-04T04:32:29.110Z,10.55
2018-06-04T04:34:57.500Z,11.00
2018-06-04T04:37:25.895Z,10.03
2018-06-04T04:39:54.246Z,13.80
2018-06-04T04:42:22.687Z,11.40
2018-06-04T04:44:51.079Z,11.65
2018-06-04T04:47:19.492Z,11.95
2018-06-04T04:49:47.905Z,12.30
2018-06-04T04:52:16.306Z,12.90
2018-06-04T04:54:44.705Z,10.50
2018-06-04T04:57:13.076Z,12.98
2018-06-04T04:59:41.501Z,12.28
2018-06-04T05:02:09.914Z,15.88
2018-06-04T05:04:38.401Z,10.95
2018-06-04T05:07:06.850Z,11.45
2018-06-04T05:09:35.231Z,10.78
2018-06-04T05:12:03.639Z,11.65
2018-06-04T05:14:32.078Z,12.05
2018-06-04T05:17:00.423Z,12.33
2018-06-04T05:19:28.855Z,10.90
2018-06-04T05:21:57.311Z,10.03
2018-06-04T05:24:25.889Z,11.88
2018-06-04T05:26:54.275Z,11.75
2018-06-04T05:29:22.745Z,11.70
2018-06-04T05:31:51.137Z,12.55
2018-06-04T05:34:19.511Z,13.43
2018-06-04T05:36:47.910Z,11.33
2018-06-04T05:39:16.345Z,14.07
2018-06-04T05:41:44.703Z,11.70
2018-06-04T05:44:13.165Z,13.35
2018-06-04T05:46:41.531Z,11.70
2018-06-04T05:49:09.987Z,10.18
2018-06-04T05:51:38.332Z,10.28
2018-06-04T05:54:06.779Z,11.25
2018-06-04T05:56:35.115Z,13.05
2018-06-04T05:59:03.751Z,14.23
2018-06-04T06:01:32.162Z,11.05
2018-06-04T06:04:00.533Z,11.20
2018-06-04T06:06:28.911Z,10.05
2018-06-04T06:08:57.338Z,10.65
2018-06-04T06:11:25.701Z,10.20
2018-06-04T06:13:54.123Z,11.10
2018-06-04T06:16:22.516Z,10.20
2018-06-04T06:18:50.900Z,11.03
2018-06-04T06:21:19.331Z,14.98
2018-06-04T06:23:47.715Z,11.63
2018-06-04T06:26:17.421Z,10.90
2018-06-04T06:28:45.792Z,10.38
2018-06-04T06:31:14.143Z,10.88
2018-06-04T06:33:48.888Z,11.80
2018-06-04T06:36:17.286Z,12.10
2018-06-04T06:38:45.650Z,11.90
2018-06-04T06:41:14.029Z,10.60
2018-06-04T06:43:42.407Z,9.33
2018-06-04T06:46:10.867Z,10.50
2018-06-04T06:48:39.280Z,8.95
2018-06-04T06:51:07.710Z,9.58
2018-06-04T06:53:36.199Z,10.15
2018-06-04T06:56:04.633Z,9.13
2018-06-04T06:58:33.023Z,8.58
2018-06-04T07:01:02.516Z,10.30
2018-06-04T07:03:30.905Z,9.20
2018-06-04T07:05:59.430Z,8.78
2018-06-04T07:08:27.831Z,10.58
2018-06-04T07:10:56.213Z,10.30
2018-06-04T07:13:24.678Z,11.57
2018-06-04T07:15:53.099Z,10.32
2018-06-04T07:18:21.489Z,10.35
2018-06-04T07:20:49.874Z,8.90
2018-06-04T07:23:18.261Z,9.93
2018-06-04T07:25:46.635Z,7.83
2018-06-04T07:28:15.058Z,8.23
2018-06-04T07:30:43.480Z,8.60
2018-06-04T07:33:11.871Z,8.35
2018-06-04T07:35:40.258Z,8.33
2018-06-04T07:38:08.642Z,7.67
2018-06-04T07:40:37.088Z,9.25
2018-06-04T07:43:05.755Z,8.48
2018-06-04T07:45:34.195Z,10.10
2018-06-04T07:48:02.598Z,8.80
2018-06-04T07:50:30.947Z,8.78
2018-06-04T07:52:59.352Z,8.13
2018-06-04T07:55:27.821Z,10.35
2018-06-04T07:57:56.191Z,8.83
2018-06-04T08:00:24.551Z,7.87
2018-06-04T08:02:52.932Z,6.85
2018-06-04T08:05:21.333Z,8.20
2018-06-04T08:07:49.773Z,8.75
2018-06-04T08:10:18.325Z,7.72
2018-06-04T08:12:46.717Z,10.65
2018-06-04T08:15:15.091Z,7.65
2018-06-04T08:17:43.479Z,7.72
2018-06-04T08:20:11.846Z,7.58
2018-06-04T08:22:40.251Z,7.67
2018-06-04T08:25:08.621Z,8.68
2018-06-04T08:27:37.047Z,8.65
2018-06-04T08:30:05.398Z,7.58
2018-06-04T08:32:33.778Z,8.13
2018-06-04T08:35:02.147Z,8.43
2018-06-04T08:37:30.658Z,11.03
2018-06-04T08:39:59.032Z,9.05
2018-06-04T08:42:27.462Z,9.43
2018-06-04T08:44:55.894Z,9.00
2018-06-04T08:47:24.278Z,9.45
2018-06-04T08:49:52.656Z,8.98
2018-06-04T08:52:21.129Z,8.28
2018-06-04T08:54:49.503Z,8.30
2018-06-04T08:57:17.924Z,7.62
2018-06-04T08:59:46.304Z,11.75
2018-06-04T09:02:14.718Z,8.45
2018-06-04T09:04:43.104Z,8.48
2018-06-04T09:07:11.184Z,9.40
2018-06-04T09:09:39.607Z,7.62
2018-06-04T09:12:08.012Z,7.75
2018-06-04T09:14:36.396Z,8.73
2018-06-04T09:17:04.756Z,10.28
2018-06-04T09:19:33.130Z,9.55
2018-06-04T09:22:01.551Z,7.95
2018-06-04T09:24:29.615Z,6.22
2018-06-04T09:26:58.040Z,8.58
2018-06-04T09:29:26.435Z,7.95
2018-06-04T09:31:54.804Z,8.43
2018-06-04T09:34:23.177Z,8.75
2018-06-04T09:36:51.596Z,7.37
2018-06-04T09:39:20.017Z,9.63
2018-06-04T09:41:48.363Z,8.83
2018-06-04T09:44:16.742Z,8.85
2018-06-04T09:46:45.092Z,10.32
2018-06-04T09:49:13.474Z,9.05
2018-06-04T09:51:41.876Z,8.58
2018-06-04T09:54:10.322Z,7.70
2018-06-04T09:56:38.723Z,8.05
2018-06-04T09:59:07.210Z,8.78
2018-06-04T10:01:35.714Z,7.45
2018-06-04T10:04:04.156Z,7.30
2018-06-04T10:06:32.573Z,6.92
2018-06-04T10:09:00.994Z,7.17
2018-06-04T10:11:29.361Z,6.00
2018-06-04T10:13:57.878Z,7.28
2018-06-04T10:16:26.215Z,8.13
2018-06-04T10:18:54.573Z,6.70
2018-06-04T10:21:22.925Z,6.70
2018-06-04T10:23:51.324Z,6.00
2018-06-04T10:26:19.694Z,9.20
2018-06-04T10:28:48.116Z,7.08
2018-06-04T10:31:16.504Z,6.67
2018-06-04T10:33:44.978Z,6.87
2018-06-04T10:36:13.306Z,7.12
2018-06-04T10:38:41.675Z,7.17
2018-06-04T10:41:10.024Z,7.00
2018-06-04T10:43:38.428Z,6.50
2018-06-04T10:46:06.596Z,6.78
2018-06-04T10:48:35.006Z,5.92
2018-06-04T10:51:03.381Z,6.00
2018-06-04T10:53:31.790Z,5.78
2018-06-04T10:56:01.366Z,5.78
2018-06-04T10:58:29.745Z,6.33
2018-06-04T11:00:58.148Z,5.37
2018-06-04T11:03:26.492Z,6.55
2018-06-04T11:05:55.022Z,5.70
2018-06-04T11:08:23.366Z,5.67
2018-06-04T11:10:51.756Z,6.92
2018-06-04T11:13:20.560Z,6.12
2018-06-04T11:15:49.010Z,5.70
2018-06-04T11:18:17.398Z,5.15
2018-06-04T11:20:45.800Z,5.87
2018-06-04T11:23:14.146Z,5.83
2018-06-04T11:25:42.528Z,5.35
2018-06-04T11:28:10.895Z,5.35
2018-06-04T11:30:39.263Z,5.50
2018-06-04T11:33:07.657Z,5.50
2018-06-04T11:35:36.355Z,5.30
2018-06-04T11:38:04.759Z,5.60
2018-06-04T11:40:33.174Z,6.53
2018-06-04T11:43:01.538Z,6.37
2018-06-04T11:45:29.967Z,6.22
2018-06-04T11:47:58.333Z,6.87
2018-06-04T11:50:26.842Z,7.22
2018-06-04T11:52:55.206Z,6.30
2018-06-04T11:55:23.620Z,7.55
2018-06-04T11:57:51.980Z,6.85
2018-06-04T12:00:20.189Z,7.12
2018-06-04T12:02:48.540Z,7.70
2018-06-04T12:05:16.992Z,6.60
2018-06-04T12:07:45.428Z,6.30
2018-06-04T12:10:13.907Z,9.30
2018-06-04T12:12:42.313Z,8.23
2018-06-04T12:15:10.672Z,6.58
2018-06-04T12:17:39.085Z,7.85
2018-06-04T12:20:07.477Z,6.37
2018-06-04T12:22:35.852Z,6.40
2018-06-04T12:25:04.263Z,6.83
2018-06-04T12:27:32.678Z,6.33
2018-06-04T12:30:01.040Z,5.60
2018-06-04T12:32:29.401Z,5.15
2018-06-04T12:34:57.790Z,5.20
2018-06-04T12:37:26.178Z,6.67
2018-06-04T12:39:54.582Z,6.53
2018-06-04T12:42:22.934Z,5.85
2018-06-04T12:44:51.277Z,5.92
2018-06-04T12:47:19.689Z,4.97
2018-06-04T12:52:22.758Z,4.33
2018-06-04T12:54:51.226Z,3.98
2018-06-04T12:57:19.650Z,4.00
2018-06-04T12:59:47.983Z,4.00
2018-06-04T13:02:16.384Z,4.25
2018-06-04T13:04:44.791Z,3.55
2018-06-04T13:07:13.186Z,4.25
2018-06-04T13:09:41.522Z,6.67
2018-06-04T13:12:09.897Z,3.83
2018-06-04T13:14:38.358Z,3.87
2018-06-04T13:17:06.763Z,10.60
2018-06-04T13:19:35.370Z,6.97
2018-06-04T13:22:03.781Z,5.83
2018-06-04T13:24:32.158Z,8.63
2018-06-04T13:27:00.523Z,5.37
2018-06-04T13:29:28.914Z,4.70
2018-06-04T13:31:57.314Z,4.50
2018-06-04T13:34:25.791Z,4.10
2018-06-04T13:36:54.147Z,5.80
2018-06-04T13:39:22.515Z,4.20
2018-06-04T13:41:50.915Z,3.87
2018-06-04T13:44:19.312Z,3.90
2018-06-04T13:46:47.675Z,4.83
2018-06-04T13:49:16.135Z,4.47
2018-06-04T13:51:44.550Z,4.25
2018-06-04T13:54:12.968Z,4.70
2018-06-04T13:56:41.307Z,3.05
2018-06-04T13:59:09.690Z,3.85
2018-06-04T14:01:38.039Z,4.42
2018-06-04T14:04:06.408Z,5.40
2018-06-04T14:06:34.782Z,4.75
2018-06-04T14:09:04.046Z,3.10
2018-06-04T14:11:32.400Z,3.37
2018-06-04T14:14:00.774Z,2.60
2018-06-04T14:16:29.207Z,3.05
2018-06-04T14:18:57.642Z,3.87
2018-06-04T14:21:26.096Z,3.87
2018-06-04T14:23:54.462Z,3.10
2018-06-04T14:26:22.810Z,3.30
2018-06-04T14:28:51.193Z,3.37
2018-06-04T14:31:19.549Z,2.90
2018-06-04T14:33:48.015Z,5.45
2018-06-04T14:36:16.371Z,3.60
2018-06-04T14:38:44.811Z,3.67
2018-06-04T14:41:13.163Z,4.45
2018-06-04T14:43:41.558Z,5.92
2018-06-04T14:46:09.976Z,7.25
2018-06-04T14:48:38.397Z,5.05
2018-06-04T14:51:07.015Z,5.17
2018-06-04T14:53:35.410Z,6.65
2018-06-04T14:56:03.856Z,16.57
2018-06-04T14:58:32.275Z,15.70
2018-06-04T15:01:00.682Z,4.67
2018-06-04T15:03:29.065Z,5.03
2018-06-04T15:05:57.649Z,6.22
2018-06-04T15:08:26.060Z,4.50
2018-06-04T15:10:54.427Z,4.70
2018-06-04T15:13:22.792Z,5.53
2018-06-04T15:15:51.177Z,4.87
2018-06-04T15:18:19.255Z,9.18
2018-06-04T15:20:47.793Z,8.58
2018-06-04T15:23:16.194Z,3.85
2018-06-04T15:25:44.703Z,3.60
2018-06-04T15:28:13.064Z,3.62
2018-06-04T15:30:41.449Z,6.37
2018-06-04T15:33:10.094Z,4.78
2018-06-04T15:35:38.506Z,6.70
2018-06-04T15:38:06.919Z,18.87
2018-06-04T15:40:35.327Z,7.45
2018-06-04T15:43:03.688Z,5.20
2018-06-04T15:45:32.110Z,3.58
2018-06-04T15:48:00.488Z,6.28
2018-06-04T15:50:28.858Z,6.00
2018-06-04T15:52:57.272Z,6.22
2018-06-04T15:55:25.691Z,3.90
2018-06-04T15:57:54.057Z,4.85
2018-06-04T16:00:22.242Z,5.60
2018-06-04T16:02:50.601Z,5.90
2018-06-04T16:05:18.955Z,6.83
2018-06-04T16:07:47.369Z,7.83
2018-06-04T16:10:15.793Z,4.53
2018-06-04T16:12:44.163Z,4.50
2018-06-04T16:15:12.555Z,6.85
2018-06-04T16:17:40.908Z,7.37
2018-06-04T16:20:09.394Z,6.00
2018-06-04T16:22:37.875Z,9.08
2018-06-04T16:25:06.268Z,8.50
2018-06-04T16:27:34.671Z,9.08
2018-06-04T16:30:03.058Z,7.70
2018-06-04T16:32:31.538Z,5.80
2018-06-04T16:34:59.869Z,6.35
2018-06-04T16:37:28.365Z,10.28
2018-06-04T16:39:56.702Z,8.30
2018-06-04T16:42:25.115Z,8.73
2018-06-04T16:44:53.548Z,3.85
2018-06-04T16:47:21.970Z,5.30
2018-06-04T16:49:50.312Z,4.55
2018-06-04T16:52:18.722Z,4.92
2018-06-04T16:54:47.135Z,4.85
2018-06-04T16:57:15.567Z,4.70
2018-06-04T16:59:43.978Z,6.03
2018-06-04T17:02:12.402Z,6.58
2018-06-04T17:04:40.810Z,7.25
2018-06-04T17:07:09.250Z,5.12
2018-06-04T17:09:37.618Z,8.95
2018-06-04T17:12:06.039Z,6.50
2018-06-04T17:14:34.389Z,10.20
2018-06-04T17:17:02.683Z,9.93
2018-06-04T17:19:31.073Z,4.70
2018-06-04T17:21:59.540Z,4.50
2018-06-04T17:24:27.931Z,6.50
2018-06-04T17:26:56.454Z,7.55
2018-06-04T17:29:24.819Z,4.78
2018-06-04T17:31:53.250Z,5.00
2018-06-04T17:34:21.609Z,8.23
2018-06-04T17:36:49.993Z,7.55
2018-06-04T17:39:18.390Z,5.67
2018-06-04T17:41:46.781Z,12.05
2018-06-04T17:44:15.222Z,9.48
2018-06-04T17:46:43.613Z,12.60
2018-06-04T17:49:11.995Z,13.88
2018-06-04T17:51:40.444Z,7.58
2018-06-04T17:54:08.908Z,8.03
2018-06-04T17:56:37.291Z,7.62
2018-06-04T17:59:05.740Z,7.58
2018-06-04T18:01:34.103Z,6.62
2018-06-04T18:04:02.535Z,5.30
2018-06-04T18:06:30.899Z,6.40
2018-06-04T18:08:59.296Z,7.95
2018-06-04T18:11:27.733Z,9.00
2018-06-04T18:13:56.089Z,5.75
2018-06-04T18:16:24.446Z,5.10
2018-06-04T18:18:52.931Z,9.03
2018-06-04T18:21:27.920Z,10.72
2018-06-04T18:23:56.403Z,11.75
2018-06-04T18:26:24.761Z,9.05
2018-06-04T18:28:53.312Z,11.05
2018-06-04T18:31:21.879Z,12.20
2018-06-04T18:33:50.332Z,11.40
2018-06-04T18:36:18.926Z,8.48
2018-06-04T18:38:47.337Z,8.05
2018-06-04T18:41:16.222Z,8.05
2018-06-04T18:43:44.565Z,10.90
2018-06-04T18:46:13.011Z,11.38
2018-06-04T18:48:41.658Z,17.82
2018-06-04T18:51:10.222Z,19.52
2018-06-04T18:53:38.742Z,14.60
2018-06-04T18:56:07.194Z,10.75
2018-06-04T18:58:35.756Z,16.27
2018-06-04T19:01:04.032Z,20.05
2018-06-04T19:03:32.432Z,27.25
2018-06-04T19:06:01.018Z,21.95
2018-06-04T19:08:29.450Z,17.42
2018-06-04T19:10:58.010Z,18.60
2018-06-04T19:13:26.415Z,23.47
2018-06-04T19:15:55.217Z,22.15
2018-06-04T19:18:23.702Z,15.88
2018-06-04T19:20:52.316Z,14.55
2018-06-04T19:23:20.669Z,16.73
2018-06-04T19:25:49.143Z,17.10
2018-06-04T19:28:17.668Z,16.90
2018-06-04T19:30:46.052Z,18.12
2018-06-04T19:33:15.189Z,25.80
2018-06-04T19:35:43.627Z,33.70
2018-06-04T19:38:12.058Z,30.65
2018-06-04T19:40:40.163Z,31.02
2018-06-04T19:43:08.509Z,27.05
2018-06-04T19:45:37.043Z,21.30
2018-06-04T19:48:06.219Z,20.27
2018-06-04T19:50:34.639Z,23.30
2018-06-04T19:53:03.009Z,17.67
2018-06-04T19:55:31.443Z,16.15
2018-06-04T19:57:59.880Z,13.98
2018-06-04T20:00:28.267Z,16.90
2018-06-04T20:02:56.708Z,17.60
2018-06-04T20:05:25.059Z,13.98
2018-06-04T20:07:53.492Z,10.90
2018-06-04T20:10:21.871Z,7.20
2018-06-04T20:12:50.260Z,6.40
2018-06-04T20:15:18.715Z,7.62
2018-06-04T20:17:47.121Z,7.45
2018-06-04T20:20:15.483Z,9.90
2018-06-04T20:22:43.869Z,8.23
2018-06-04T20:25:12.216Z,7.40
2018-06-04T20:27:40.586Z,7.90
2018-06-04T20:30:09.067Z,7.85
2018-06-04T20:32:37.496Z,7.62
2018-06-04T20:35:05.906Z,8.08
2018-06-04T20:37:34.313Z,8.80
2018-06-04T20:40:02.776Z,9.35
2018-06-04T20:42:31.171Z,8.98
2018-06-04T20:44:59.596Z,8.53
2018-06-04T20:47:28.010Z,7.03
2018-06-04T20:49:56.718Z,14.38
2018-06-04T20:52:24.917Z,18.95
2018-06-04T20:54:53.407Z,11.45
2018-06-04T20:57:21.766Z,7.55
2018-06-04T20:59:50.306Z,6.60
2018-06-04T21:02:18.700Z,5.97
2018-06-04T21:04:47.077Z,7.22
2018-06-04T21:07:15.905Z,7.42
2018-06-04T21:09:44.291Z,6.85
2018-06-04T21:12:12.650Z,7.28
2018-06-04T21:14:41.024Z,6.62
2018-06-04T21:17:09.354Z,6.58
2018-06-04T21:19:37.467Z,6.67
2018-06-04T21:22:05.866Z,7.78
2018-06-04T21:24:34.250Z,7.45
2018-06-04T21:27:02.608Z,6.87
2018-06-04T21:29:31.144Z,7.47
2018-06-04T21:31:59.470Z,7.40
2018-06-04T21:34:27.905Z,7.20
2018-06-04T21:36:56.313Z,7.42
2018-06-04T21:39:24.673Z,7.78
2018-06-04T21:41:53.050Z,8.05
2018-06-04T21:44:21.442Z,9.58
2018-06-04T21:46:49.798Z,8.05
2018-06-04T21:49:19.367Z,7.85
2018-06-04T21:51:48.349Z,7.83
2018-06-04T21:54:16.787Z,8.35
2018-06-04T21:56:45.142Z,8.98
2018-06-04T21:59:13.755Z,8.60
2018-06-04T22:01:42.210Z,9.05
2018-06-04T22:04:10.587Z,11.05
2018-06-04T22:06:38.954Z,8.10
2018-06-04T22:09:08.290Z,10.58
2018-06-04T22:11:36.701Z,9.65
2018-06-04T22:14:05.535Z,9.78
2018-06-04T22:16:33.907Z,7.15
2018-06-04T22:19:02.295Z,8.60
2018-06-04T22:21:30.691Z,7.58
2018-06-04T22:23:59.066Z,7.45
2018-06-04T22:26:27.493Z,7.67
2018-06-04T22:28:55.859Z,7.55
2018-06-04T22:31:25.096Z,8.30
2018-06-04T22:33:53.498Z,8.08
2018-06-04T22:36:21.874Z,8.38
2018-06-04T22:38:49.943Z,9.73
2018-06-04T22:41:18.344Z,8.55
2018-06-04T22:43:46.699Z,9.08
2018-06-04T22:46:15.084Z,8.63
2018-06-04T22:48:43.510Z,8.30
2018-06-04T22:51:11.876Z,8.90
2018-06-04T22:53:40.559Z,11.12
2018-06-04T22:56:08.996Z,11.40
2018-06-04T22:58:37.391Z,10.70
2018-06-04T23:01:05.742Z,9.95
2018-06-04T23:03:34.162Z,8.65
2018-06-04T23:06:02.516Z,7.65
2018-06-04T23:08:30.890Z,10.10
2018-06-04T23:10:59.263Z,8.95
2018-06-04T23:13:27.675Z,7.80
2018-06-04T23:15:56.072Z,8.40
2018-06-04T23:18:24.422Z,8.58
2018-06-04T23:20:52.789Z,8.08
2018-06-04T23:23:21.223Z,7.87
2018-06-04T23:25:49.645Z,8.40
2018-06-04T23:28:18.067Z,8.48
2018-06-04T23:30:46.438Z,7.40
2018-06-04T23:33:14.827Z,7.35
2018-06-04T23:35:43.194Z,7.20
2018-06-04T23:38:11.552Z,7.55
2018-06-04T23:40:39.915Z,7.37
2018-06-04T23:43:08.243Z,7.22
2018-06-04T23:45:36.615Z,8.30
2018-06-04T23:48:04.963Z,8.78
2018-06-04T23:50:33.364Z,8.93
2018-06-04T23:53:01.710Z,8.50
2018-06-04T23:55:30.086Z,9.33
2018-06-04T23:57:58.478Z,9.08
